Time;durP1;ratioP1;P1;durP2;ratioP2;P2;SDS_P1;SDS_P2;PMS_P1;PMS_P2;Temp;Humidity;BMP_temperature;BMP_pressure;BME280_temperature;BME280_humidity;BME280_pressure;Samples;Min_cycle;Max_cycle;Signal;HPM_P1;HPM_P2
2021/06/23 00:02:09;;;;;;;16.70;14.70;;;14.50;99.90;;;;;;5079331;28;20184;-43
2021/06/23 00:04:34;;;;;;;15.70;14.30;;;14.50;99.90;;;;;;5086240;28;20216;-41
2021/06/23 00:07:00;;;;;;;14.43;13.03;;;14.60;99.90;;;;;;5068011;28;20450;-41
2021/06/23 00:09:26;;;;;;;16.20;13.80;;;14.50;99.90;;;;;;5085446;28;20188;-43
2021/06/23 00:11:53;;;;;;;15.80;14.17;;;14.50;99.90;;;;;;5086420;28;20524;-44
2021/06/23 00:14:19;;;;;;;18.37;14.00;;;14.50;99.90;;;;;;5077959;28;20223;-40
2021/06/23 00:16:46;;;;;;;16.00;14.30;;;14.50;99.90;;;;;;5083893;28;20455;-44
2021/06/23 00:19:12;;;;;;;15.80;14.30;;;14.50;99.90;;;;;;5085634;28;20462;-41
2021/06/23 00:21:38;;;;;;;14.87;13.40;;;14.50;99.90;;;;;;5085714;28;20899;-43
2021/06/23 00:24:04;;;;;;;17.03;14.30;;;14.50;99.90;;;;;;5086118;28;20220;-42
2021/06/23 00:26:35;;;;;;;16.13;14.30;;;14.50;99.90;;;;;;5068333;28;20419;-40
2021/06/23 00:29:01;;;;;;;17.20;14.53;;;14.50;99.90;;;;;;5078877;28;20517;-40
2021/06/23 00:31:28;;;;;;;16.50;14.80;;;14.50;99.90;;;;;;5080940;28;21020;-40
2021/06/23 00:33:55;;;;;;;15.67;14.10;;;14.50;99.90;;;;;;5074879;28;20430;-41
2021/06/23 00:36:20;;;;;;;16.73;15.03;;;14.50;99.90;;;;;;5067562;28;20476;-41
2021/06/23 00:38:46;;;;;;;15.77;14.17;;;14.50;99.90;;;;;;5085524;28;20434;-41
2021/06/23 00:41:17;;;;;;;17.90;13.50;;;14.40;99.90;;;;;;5085793;28;20197;-43
2021/06/23 00:43:44;;;;;;;14.70;13.20;;;14.50;99.90;;;;;;5079927;28;20555;-41
2021/06/23 00:46:11;;;;;;;15.27;12.70;;;14.40;99.90;;;;;;5081897;28;20760;-41
2021/06/23 00:48:37;;;;;;;14.17;12.60;;;14.40;99.90;;;;;;5077700;28;20418;-41
2021/06/23 00:51:04;;;;;;;22.47;13.77;;;14.40;99.90;;;;;;5088040;28;20505;-43
2021/06/23 00:53:29;;;;;;;15.97;13.73;;;14.40;99.90;;;;;;5089799;28;20842;-41
2021/06/23 00:55:57;;;;;;;16.63;13.23;;;14.20;99.90;;;;;;5071304;28;20426;-40
2021/06/23 00:58:24;;;;;;;14.83;13.43;;;14.30;99.90;;;;;;5089291;28;20437;-42
2021/06/23 01:00:52;;;;;;;14.67;13.10;;;14.30;99.90;;;;;;5079575;28;20784;-40
2021/06/23 01:03:19;;;;;;;14.97;12.90;;;14.30;99.90;;;;;;5085530;28;20591;-41
2021/06/23 01:05:45;;;;;;;18.33;14.27;;;14.30;99.90;;;;;;5089192;28;20914;-41
2021/06/23 01:08:11;;;;;;;15.10;13.60;;;14.30;99.90;;;;;;5071532;28;20430;-44
2021/06/23 01:10:37;;;;;;;16.03;14.40;;;14.30;99.90;;;;;;5088907;28;20430;-42
2021/06/23 01:13:33;;;;;;;15.33;13.73;;;14.20;99.90;;;;;;5088123;28;20208;-43
2021/06/23 01:16:02;;;;;;;14.97;13.43;;;14.30;99.90;;;;;;5063299;28;20418;-40
2021/06/23 01:18:28;;;;;;;15.63;14.00;;;14.30;99.90;;;;;;5087832;28;20936;-40
2021/06/23 01:20:55;;;;;;;15.30;12.83;;;14.30;99.90;;;;;;5070985;28;20427;-40
2021/06/23 01:23:21;;;;;;;16.40;13.97;;;14.40;99.90;;;;;;5089238;28;20787;-41
2021/06/23 01:25:50;;;;;;;17.67;13.80;;;14.40;99.90;;;;;;5089352;28;20422;-42
2021/06/23 01:28:16;;;;;;;16.20;13.00;;;14.30;99.90;;;;;;5087961;28;20525;-41
2021/06/23 01:30:42;;;;;;;17.67;14.27;;;14.20;99.90;;;;;;5082781;28;20419;-40
2021/06/23 01:33:09;;;;;;;19.80;14.80;;;14.20;99.90;;;;;;5065530;28;20188;-42
2021/06/23 01:35:35;;;;;;;15.30;13.70;;;14.10;99.90;;;;;;5089298;28;20592;-42
2021/06/23 01:38:02;;;;;;;17.93;14.43;;;14.00;99.90;;;;;;5088737;28;20418;-43
2021/06/23 01:40:28;;;;;;;15.67;13.67;;;14.00;99.90;;;;;;5069899;28;20418;-42
2021/06/23 01:42:55;;;;;;;15.80;14.20;;;14.10;99.90;;;;;;5087556;28;21051;-42
2021/06/23 01:45:20;;;;;;;16.50;13.70;;;14.00;99.90;;;;;;5080251;28;20509;-40
2021/06/23 01:47:46;;;;;;;16.63;13.50;;;14.10;99.90;;;;;;5066237;28;20502;-40
2021/06/23 01:50:13;;;;;;;16.13;14.07;;;14.10;99.90;;;;;;5088114;28;20195;-44
2021/06/23 01:52:42;;;;;;;15.77;13.80;;;14.10;99.90;;;;;;5088564;28;20430;-42
2021/06/23 01:55:26;;;;;;;20.23;14.00;;;14.10;99.90;;;;;;5088724;28;20502;-42
2021/06/23 01:58:02;;;;;;;19.10;13.77;;;14.10;99.90;;;;;;5087932;28;20815;-44
2021/06/23 02:00:54;;;;;;;16.43;14.53;;;14.10;99.90;;;;;;5077837;28;20434;-41
2021/06/23 02:04:04;;;;;;;14.30;12.80;;;14.10;99.90;;;;;;5064022;28;20465;-42
2021/06/23 02:06:48;;;;;;;17.10;12.67;;;14.20;99.90;;;;;;5070360;28;20417;-43
2021/06/23 02:09:46;;;;;;;15.47;13.00;;;14.20;99.90;;;;;;5087511;28;20687;-43
2021/06/23 02:12:24;;;;;;;21.20;14.13;;;14.20;99.90;;;;;;5087842;28;20899;-40
2021/06/23 02:15:00;;;;;;;18.80;13.30;;;14.20;99.90;;;;;;5080626;28;20453;-44
2021/06/23 02:17:28;;;;;;;17.90;13.40;;;14.10;99.90;;;;;;5083705;28;20423;-41
2021/06/23 02:19:55;;;;;;;14.80;13.30;;;14.10;99.90;;;;;;5087469;28;20418;-41
2021/06/23 02:22:30;;;;;;;15.43;13.93;;;14.10;99.90;;;;;;5087732;28;20465;-42
2021/06/23 02:25:10;;;;;;;14.60;13.10;;;14.10;99.90;;;;;;5087900;28;20499;-41
2021/06/23 02:27:39;;;;;;;17.17;14.40;;;14.10;99.90;;;;;;5088249;28;20425;-41
2021/06/23 02:30:06;;;;;;;16.53;13.93;;;14.10;99.90;;;;;;5076812;28;20533;-44
2021/06/23 02:32:33;;;;;;;16.13;13.83;;;14.20;99.90;;;;;;5060168;28;20433;-40
2021/06/23 02:35:03;;;;;;;19.00;13.90;;;14.20;99.90;;;;;;5087480;28;20419;-41
2021/06/23 02:37:29;;;;;;;16.40;13.77;;;14.20;99.90;;;;;;5088027;28;20426;-43
2021/06/23 02:39:56;;;;;;;16.63;13.13;;;14.20;99.90;;;;;;5087232;28;20426;-42
2021/06/23 02:42:22;;;;;;;16.97;13.97;;;14.10;99.90;;;;;;5087585;28;20923;-41
2021/06/23 02:44:48;;;;;;;17.63;14.70;;;14.10;99.90;;;;;;5078582;28;20565;-46
2021/06/23 02:47:19;;;;;;;16.13;14.53;;;14.10;99.90;;;;;;5081945;28;20505;-41
2021/06/23 02:49:45;;;;;;;17.53;14.23;;;14.10;99.90;;;;;;5086070;28;20421;-41
2021/06/23 02:52:12;;;;;;;15.80;14.10;;;14.00;99.90;;;;;;5087460;28;20418;-43
2021/06/23 02:54:39;;;;;;;18.47;14.40;;;14.10;99.90;;;;;;5087476;28;20417;-40
2021/06/23 02:57:05;;;;;;;15.33;13.83;;;14.10;99.90;;;;;;5087277;28;20785;-42
2021/06/23 02:59:32;;;;;;;17.80;13.47;;;14.10;99.90;;;;;;5078390;28;20441;-41
2021/06/23 03:01:58;;;;;;;21.17;15.40;;;14.00;99.90;;;;;;5079108;28;20192;-41
2021/06/23 03:04:24;;;;;;;16.57;14.87;;;14.10;99.90;;;;;;5076513;28;20458;-41
2021/06/23 03:06:49;;;;;;;17.47;14.10;;;14.10;99.90;;;;;;5087129;28;20755;-40
2021/06/23 03:09:15;;;;;;;17.53;13.53;;;14.00;99.90;;;;;;5086828;28;20189;-41
2021/06/23 03:11:41;;;;;;;15.30;13.83;;;14.10;99.90;;;;;;5086897;28;20188;-41
2021/06/23 03:14:08;;;;;;;20.30;14.57;;;14.10;99.90;;;;;;5079970;28;20197;-43
2021/06/23 03:16:35;;;;;;;19.57;16.27;;;14.00;99.90;;;;;;5073422;28;20427;-41
2021/06/23 03:19:01;;;;;;;16.87;14.13;;;13.90;99.90;;;;;;5080688;28;20422;-43
2021/06/23 03:21:27;;;;;;;16.37;13.30;;;14.00;99.90;;;;;;5087003;28;21016;-42
2021/06/23 03:23:54;;;;;;;17.13;14.60;;;14.00;99.90;;;;;;5087110;28;20207;-41
2021/06/23 03:26:20;;;;;;;17.00;14.50;;;14.00;99.90;;;;;;5087262;28;20796;-45
2021/06/23 03:28:46;;;;;;;15.80;13.90;;;14.00;99.90;;;;;;5085384;28;20823;-41
2021/06/23 03:31:13;;;;;;;15.27;13.67;;;14.00;99.90;;;;;;5077619;28;20411;-42
2021/06/23 03:33:40;;;;;;;16.87;12.67;;;14.00;99.90;;;;;;5084947;28;20768;-42
2021/06/23 03:36:06;;;;;;;16.87;14.07;;;13.90;99.90;;;;;;5087110;28;20804;-41
2021/06/23 03:38:33;;;;;;;15.43;13.90;;;13.90;99.90;;;;;;5085872;28;20441;-41
2021/06/23 03:40:58;;;;;;;18.77;15.10;;;13.90;99.90;;;;;;5086461;28;20423;-43
2021/06/23 03:43:27;;;;;;;16.40;14.30;;;14.00;99.90;;;;;;5086424;28;20812;-44
2021/06/23 03:45:53;;;;;;;14.33;12.83;;;14.00;99.90;;;;;;5077850;28;20444;-41
2021/06/23 03:48:19;;;;;;;14.13;12.57;;;14.00;99.90;;;;;;5083597;28;20498;-41
2021/06/23 03:50:47;;;;;;;15.20;13.60;;;14.00;99.90;;;;;;5085739;28;20414;-41
2021/06/23 03:53:13;;;;;;;16.67;14.77;;;13.90;99.90;;;;;;5086482;28;20427;-40
2021/06/23 03:55:39;;;;;;;15.27;13.67;;;13.90;99.90;;;;;;5086625;28;20422;-43
2021/06/23 03:58:05;;;;;;;19.33;14.40;;;13.90;99.90;;;;;;5068621;28;20219;-41
2021/06/23 04:00:31;;;;;;;16.90;14.10;;;13.90;99.90;;;;;;5075001;28;20469;-42
2021/06/23 04:02:57;;;;;;;17.83;14.20;;;13.90;99.90;;;;;;5085725;28;20418;-43
2021/06/23 04:05:23;;;;;;;21.23;14.77;;;13.90;99.90;;;;;;5080882;28;20610;-43
2021/06/23 04:07:48;;;;;;;16.90;13.23;;;13.90;99.90;;;;;;5086744;28;20773;-41
2021/06/23 04:10:15;;;;;;;17.27;14.90;;;13.90;99.90;;;;;;5085567;28;20944;-42
2021/06/23 04:12:41;;;;;;;14.67;13.03;;;13.90;99.90;;;;;;5086670;28;20181;-40
2021/06/23 04:15:09;;;;;;;16.30;13.77;;;13.90;99.90;;;;;;5079011;28;20423;-41
2021/06/23 04:17:35;;;;;;;18.90;13.83;;;14.00;99.90;;;;;;5064934;28;20619;-43
2021/06/23 04:20:01;;;;;;;15.00;13.43;;;14.00;99.90;;;;;;5065155;28;20422;-42
2021/06/23 04:22:27;;;;;;;18.70;13.40;;;14.00;99.90;;;;;;5068435;28;20195;-42
2021/06/23 04:24:53;;;;;;;17.03;13.80;;;14.00;99.90;;;;;;5070459;28;20573;-44
2021/06/23 04:27:20;;;;;;;18.73;13.93;;;14.00;99.90;;;;;;5072329;28;20421;-40
2021/06/23 04:29:45;;;;;;;19.20;13.43;;;14.10;99.90;;;;;;5085875;28;20485;-42
2021/06/23 04:32:11;;;;;;;14.40;12.93;;;14.00;99.90;;;;;;5082885;28;20850;-42
2021/06/23 04:34:37;;;;;;;18.20;13.90;;;14.00;99.90;;;;;;5090144;28;20200;-43
2021/06/23 04:37:04;;;;;;;19.30;14.07;;;13.90;99.90;;;;;;5089990;28;20771;-42
2021/06/23 04:39:29;;;;;;;17.50;14.77;;;13.90;99.90;;;;;;5089448;28;20559;-40
2021/06/23 04:41:55;;;;;;;14.60;13.00;;;13.90;99.90;;;;;;5071468;28;20442;-41
2021/06/23 04:44:21;;;;;;;16.13;13.40;;;14.00;99.90;;;;;;5088110;28;20686;-40
2021/06/23 04:46:46;;;;;;;18.37;13.50;;;14.00;99.90;;;;;;5061276;28;20198;-42
2021/06/23 04:49:12;;;;;;;15.80;13.93;;;14.00;99.90;;;;;;5076311;28;20771;-43
2021/06/23 04:51:38;;;;;;;18.80;13.47;;;14.00;99.90;;;;;;5083356;28;20265;-43
2021/06/23 04:54:04;;;;;;;18.03;14.10;;;14.10;99.90;;;;;;5088367;28;20180;-42
2021/06/23 04:56:29;;;;;;;16.57;14.77;;;14.10;99.90;;;;;;5089559;28;20437;-45
2021/06/23 04:58:55;;;;;;;16.17;12.97;;;14.10;99.90;;;;;;5088931;28;20430;-42
2021/06/23 05:01:21;;;;;;;16.10;12.97;;;14.20;99.90;;;;;;5061989;28;20211;-43
2021/06/23 05:03:46;;;;;;;17.70;13.60;;;14.20;99.90;;;;;;5045759;28;20624;-43
2021/06/23 05:06:12;;;;;;;17.70;13.70;;;14.20;99.90;;;;;;5082734;28;20686;-43
2021/06/23 05:08:38;;;;;;;19.70;12.90;;;14.30;99.90;;;;;;5076397;28;20441;-46
2021/06/23 05:11:03;;;;;;;20.50;13.97;;;14.30;99.90;;;;;;5089772;28;20188;-41
2021/06/23 05:13:29;;;;;;;18.73;12.17;;;14.30;99.90;;;;;;5089115;28;20177;-41
2021/06/23 05:15:58;;;;;;;16.70;12.37;;;14.30;99.90;;;;;;5053710;28;20192;-41
2021/06/23 05:18:24;;;;;;;14.40;12.90;;;14.30;99.90;;;;;;5085935;28;20959;-45
2021/06/23 05:20:49;;;;;;;15.93;13.00;;;14.30;99.90;;;;;;5087834;28;20521;-42
2021/06/23 05:23:15;;;;;;;17.60;13.20;;;14.30;99.90;;;;;;5070907;28;20584;-44
2021/06/23 05:25:41;;;;;;;13.63;12.33;;;14.20;99.90;;;;;;5089336;28;20819;-43
2021/06/23 05:28:06;;;;;;;14.37;12.27;;;14.30;99.90;;;;;;5070839;28;20200;-44
2021/06/23 05:30:32;;;;;;;13.93;12.50;;;14.30;99.90;;;;;;5061742;28;20193;-41
2021/06/23 05:32:58;;;;;;;15.77;13.00;;;14.30;99.90;;;;;;5076391;28;20184;-42
2021/06/23 05:35:23;;;;;;;16.23;12.80;;;14.30;99.90;;;;;;5080675;28;20337;-41
2021/06/23 05:37:49;;;;;;;14.10;12.00;;;14.30;99.90;;;;;;5089053;28;20196;-42
2021/06/23 05:40:15;;;;;;;23.70;13.03;;;14.30;99.90;;;;;;5069943;28;20197;-41
2021/06/23 05:42:41;;;;;;;15.07;13.37;;;14.30;99.90;;;;;;5087705;28;20211;-40
2021/06/23 05:45:07;;;;;;;15.60;13.10;;;14.30;99.90;;;;;;5073171;28;20261;-42
2021/06/23 05:47:33;;;;;;;15.93;12.73;;;14.30;99.90;;;;;;5079571;28;20428;-42
2021/06/23 05:49:59;;;;;;;15.90;13.47;;;14.40;99.90;;;;;;5084775;28;20457;-40
2021/06/23 05:52:25;;;;;;;15.40;12.30;;;14.50;99.90;;;;;;5088876;28;20200;-42
2021/06/23 05:54:50;;;;;;;18.33;13.93;;;14.40;99.90;;;;;;5088465;28;21016;-41
2021/06/23 05:57:16;;;;;;;14.60;11.80;;;14.50;99.90;;;;;;5084528;28;20602;-44
2021/06/23 05:59:42;;;;;;;21.00;14.67;;;14.50;99.90;;;;;;5050399;28;20192;-41
2021/06/23 06:02:08;;;;;;;17.67;12.87;;;14.50;99.90;;;;;;5081474;28;20283;-41
2021/06/23 06:04:34;;;;;;;20.43;13.30;;;14.50;99.90;;;;;;5075458;28;20265;-41
2021/06/23 06:06:59;;;;;;;15.83;13.20;;;14.50;99.90;;;;;;5087687;28;20426;-41
2021/06/23 06:09:25;;;;;;;22.93;14.30;;;14.60;99.90;;;;;;5087774;28;20242;-42
2021/06/23 06:11:50;;;;;;;16.47;12.97;;;14.60;99.90;;;;;;5074354;28;20212;-43
2021/06/23 06:14:16;;;;;;;16.07;13.30;;;14.70;99.90;;;;;;5057685;28;20192;-41
2021/06/23 06:16:42;;;;;;;14.83;12.00;;;14.70;99.90;;;;;;5077671;28;20181;-42
2021/06/23 06:19:07;;;;;;;17.80;12.60;;;14.70;99.90;;;;;;5081006;28;20197;-42
2021/06/23 06:21:33;;;;;;;18.00;12.40;;;14.80;99.90;;;;;;5088232;28;20283;-44
2021/06/23 06:23:59;;;;;;;16.40;13.70;;;14.70;99.90;;;;;;5087857;28;20220;-43
2021/06/23 06:26:24;;;;;;;23.73;13.67;;;14.80;99.90;;;;;;5087958;28;20192;-41
2021/06/23 06:28:50;;;;;;;15.70;13.50;;;14.90;99.90;;;;;;5087304;28;20193;-42
2021/06/23 06:31:16;;;;;;;13.27;11.97;;;14.90;99.90;;;;;;5076759;28;20596;-41
2021/06/23 06:33:42;;;;;;;15.97;12.27;;;15.00;99.90;;;;;;5085270;28;20272;-43
2021/06/23 06:36:07;;;;;;;16.37;12.93;;;15.00;99.90;;;;;;5077316;28;20574;-41
2021/06/23 06:38:33;;;;;;;19.87;12.70;;;15.00;99.90;;;;;;5076331;28;20188;-44
2021/06/23 06:40:59;;;;;;;16.73;12.33;;;15.00;99.90;;;;;;5074043;28;20247;-45
2021/06/23 06:43:25;;;;;;;19.13;12.83;;;15.10;99.90;;;;;;5067291;28;20196;-45
2021/06/23 06:45:52;;;;;;;14.60;12.17;;;15.20;99.90;;;;;;5068872;28;20200;-45
2021/06/23 06:48:22;;;;;;;20.23;13.03;;;15.20;99.90;;;;;;5065600;28;20198;-43
2021/06/23 06:50:48;;;;;;;31.23;16.10;;;15.10;99.90;;;;;;5079874;28;20461;-40
2021/06/23 06:53:15;;;;;;;27.43;15.07;;;15.20;99.90;;;;;;5068058;28;20432;-45
2021/06/23 06:55:41;;;;;;;19.77;13.50;;;15.20;99.90;;;;;;5083429;28;20945;-41
2021/06/23 06:58:06;;;;;;;17.40;14.03;;;15.20;99.90;;;;;;5087162;28;20483;-41
2021/06/23 07:00:32;;;;;;;15.30;13.07;;;15.30;99.90;;;;;;5083052;28;20552;-42
2021/06/23 07:02:58;;;;;;;15.47;13.10;;;15.30;99.90;;;;;;5080129;28;20769;-43
2021/06/23 07:05:24;;;;;;;17.50;13.10;;;15.30;99.90;;;;;;5081802;28;20315;-44
2021/06/23 07:07:51;;;;;;;14.00;11.10;;;15.30;99.90;;;;;;5086532;28;20464;-41
2021/06/23 07:10:23;;;;;;;16.00;12.63;;;15.40;99.90;;;;;;5082969;28;20533;-42
2021/06/23 07:12:49;;;;;;;17.87;12.40;;;15.50;99.90;;;;;;5083555;28;20456;-42
2021/06/23 07:15:16;;;;;;;15.90;12.37;;;15.50;99.90;;;;;;5069182;28;20418;-42
2021/06/23 07:17:42;;;;;;;16.43;12.50;;;15.50;99.90;;;;;;5057064;28;20177;-41
2021/06/23 07:20:08;;;;;;;13.00;10.93;;;15.40;99.90;;;;;;5073004;28;20415;-41
2021/06/23 07:22:34;;;;;;;12.33;11.13;;;15.40;99.90;;;;;;5099041;28;20533;-45
2021/06/23 07:25:00;;;;;;;16.00;12.30;;;15.50;99.90;;;;;;5062754;28;20510;-43
2021/06/23 07:27:26;;;;;;;16.73;13.40;;;15.50;99.90;;;;;;5061453;28;20292;-43
2021/06/23 07:29:52;;;;;;;15.90;11.13;;;15.50;99.90;;;;;;5063330;28;20440;-45
2021/06/23 07:33:05;;;;;;;14.10;11.60;;;15.50;99.90;;;;;;5050605;28;20436;-46
2021/06/23 07:37:50;;;;;;;13.40;11.20;;;15.60;99.90;;;;;;5063009;28;20419;-41
2021/06/23 07:40:17;;;;;;;14.70;11.53;;;15.60;99.90;;;;;;5061916;28;20424;-44
2021/06/23 07:42:43;;;;;;;15.67;12.50;;;15.70;99.90;;;;;;5077504;28;20869;-42
2021/06/23 07:45:11;;;;;;;14.93;12.10;;;15.70;99.90;;;;;;5076821;28;20545;-41
2021/06/23 07:47:38;;;;;;;18.70;12.40;;;15.70;99.90;;;;;;5053287;28;20400;-43
2021/06/23 07:50:06;;;;;;;13.67;11.60;;;15.70;99.90;;;;;;5062007;28;20483;-42
2021/06/23 07:52:48;;;;;;;14.73;12.00;;;15.80;99.90;;;;;;5060616;28;20527;-44
2021/06/23 08:08:57;;;;;;;17.03;12.70;;;15.90;99.90;;;;;;5081772;28;20465;-48
2021/06/23 08:11:30;;;;;;;14.33;10.87;;;15.90;99.90;;;;;;5073211;28;20426;-44
2021/06/23 08:13:55;;;;;;;16.37;12.27;;;16.00;99.90;;;;;;5077979;28;20459;-43
2021/06/23 08:16:21;;;;;;;14.33;11.60;;;16.00;99.90;;;;;;5061290;28;20938;-42
2021/06/23 08:18:47;;;;;;;14.30;11.90;;;16.10;99.90;;;;;;5061375;28;20422;-42
2021/06/23 08:21:12;;;;;;;19.33;13.43;;;16.10;99.90;;;;;;5054437;28;20292;-42
2021/06/23 08:23:38;;;;;;;14.27;11.03;;;16.10;99.90;;;;;;5066302;28;20268;-42
2021/06/23 08:26:04;;;;;;;14.47;12.23;;;16.10;99.90;;;;;;5063657;28;20246;-45
2021/06/23 08:28:30;;;;;;;15.50;12.63;;;16.20;99.90;;;;;;5068714;28;20216;-43
2021/06/23 08:30:55;;;;;;;14.13;12.20;;;16.20;99.90;;;;;;5062254;28;20193;-44
2021/06/23 08:33:25;;;;;;;17.03;12.70;;;16.30;99.90;;;;;;5069311;28;20182;-42
2021/06/23 08:35:52;;;;;;;11.87;10.60;;;16.30;99.90;;;;;;5052826;28;20280;-42
2021/06/23 08:38:17;;;;;;;18.33;11.80;;;16.30;99.90;;;;;;5066608;28;20457;-47
2021/06/23 08:40:45;;;;;;;13.77;12.20;;;16.40;99.90;;;;;;5065711;28;20431;-41
2021/06/23 08:43:14;;;;;;;14.27;10.73;;;16.50;99.90;;;;;;5068425;28;20189;-42
2021/06/23 08:45:40;;;;;;;15.33;11.30;;;16.50;99.90;;;;;;5068346;28;21049;-45
2021/06/23 08:48:06;;;;;;;14.40;12.30;;;16.50;99.90;;;;;;5042245;28;20510;-44
2021/06/23 08:50:32;;;;;;;14.00;11.80;;;16.60;99.90;;;;;;5049125;28;20210;-45
2021/06/23 08:52:58;;;;;;;19.20;12.63;;;16.60;99.90;;;;;;5066231;28;20423;-43
2021/06/23 08:55:23;;;;;;;16.00;11.47;;;16.60;99.90;;;;;;5059708;28;20451;-43
2021/06/23 08:57:51;;;;;;;13.13;11.83;;;16.60;99.90;;;;;;5066017;28;20193;-43
2021/06/23 09:00:19;;;;;;;15.93;11.40;;;16.60;99.90;;;;;;5067558;28;20223;-42
2021/06/23 09:02:45;;;;;;;14.57;12.20;;;16.50;99.90;;;;;;5046198;28;20802;-45
2021/06/23 09:05:14;;;;;;;14.53;12.23;;;16.50;99.90;;;;;;5052937;28;20420;-46
2021/06/23 09:07:55;;;;;;;15.30;11.73;;;16.60;99.90;;;;;;5066989;28;20450;-45
2021/06/23 09:10:21;;;;;;;13.83;10.90;;;16.70;99.90;;;;;;5061716;28;20482;-43
2021/06/23 09:13:06;;;;;;;19.00;12.70;;;16.80;99.90;;;;;;5067911;28;20618;-45
2021/06/23 09:15:50;;;;;;;20.33;13.17;;;16.90;99.90;;;;;;5038485;28;20267;-43
2021/06/23 09:18:23;;;;;;;14.80;13.30;;;16.90;99.90;;;;;;5040002;28;20514;-45
2021/06/23 09:21:03;;;;;;;13.60;11.53;;;16.90;99.90;;;;;;5051619;28;20934;-41
2021/06/23 09:23:50;;;;;;;14.40;11.37;;;17.00;99.90;;;;;;5064065;28;20450;-41
2021/06/23 09:26:37;;;;;;;13.80;11.70;;;17.10;99.90;;;;;;5066206;28;20423;-43
2021/06/23 09:29:14;;;;;;;13.00;11.70;;;17.30;99.90;;;;;;5065966;28;21027;-42
2021/06/23 09:31:56;;;;;;;13.70;10.70;;;17.40;99.90;;;;;;5058576;28;20436;-43
2021/06/23 09:34:26;;;;;;;12.80;11.50;;;17.50;99.90;;;;;;5042515;28;20424;-43
2021/06/23 09:36:52;;;;;;;17.87;11.90;;;17.60;99.90;;;;;;5059994;28;20422;-44
2021/06/23 09:39:20;;;;;;;17.23;12.10;;;17.60;99.90;;;;;;5067140;28;20428;-47
2021/06/23 09:41:47;;;;;;;15.80;12.30;;;17.80;99.90;;;;;;5057328;28;20926;-43
2021/06/23 09:44:13;;;;;;;13.40;12.10;;;17.80;99.90;;;;;;5067348;28;20419;-44
2021/06/23 09:46:41;;;;;;;13.63;12.23;;;17.90;99.90;;;;;;5061061;28;20518;-45
2021/06/23 09:49:17;;;;;;;13.47;12.10;;;17.90;99.90;;;;;;5046570;28;20388;-47
2021/06/23 09:51:48;;;;;;;14.83;12.30;;;17.90;99.90;;;;;;5046910;28;20422;-44
2021/06/23 09:54:17;;;;;;;13.37;12.03;;;17.90;99.90;;;;;;5066992;28;20427;-42
2021/06/23 09:56:46;;;;;;;19.53;13.47;;;17.90;99.90;;;;;;5060477;28;20430;-46
2021/06/23 09:59:39;;;;;;;15.60;13.50;;;18.00;99.90;;;;;;5066452;28;20722;-42
2021/06/23 10:02:30;;;;;;;16.00;12.57;;;18.10;99.90;;;;;;5055961;28;20941;-44
2021/06/23 10:05:18;;;;;;;16.77;15.03;;;18.30;99.90;;;;;;5056266;28;20432;-44
2021/06/23 10:07:46;;;;;;;17.40;14.10;;;18.40;99.90;;;;;;5054078;28;20427;-44
2021/06/23 10:10:21;;;;;;;17.80;13.23;;;18.50;99.90;;;;;;5064393;28;20467;-44
2021/06/23 10:12:54;;;;;;;17.27;14.47;;;18.50;99.90;;;;;;5065557;28;20430;-43
2021/06/23 10:15:21;;;;;;;15.10;13.17;;;18.50;99.90;;;;;;5052759;28;20981;-42
2021/06/23 10:17:47;;;;;;;17.63;13.43;;;18.50;99.90;;;;;;5050756;28;20799;-44
2021/06/23 10:20:14;;;;;;;16.70;14.40;;;18.50;99.90;;;;;;5059997;28;20428;-46
2021/06/23 10:22:42;;;;;;;16.00;14.30;;;18.50;99.90;;;;;;5051585;28;20979;-44
2021/06/23 10:25:11;;;;;;;16.43;14.13;;;18.40;99.90;;;;;;5064823;28;20473;-44
2021/06/23 10:27:42;;;;;;;15.00;13.50;;;18.50;99.90;;;;;;5056841;28;21312;-43
2021/06/23 10:30:09;;;;;;;16.83;14.77;;;18.60;99.90;;;;;;5055322;28;20464;-43
2021/06/23 10:32:35;;;;;;;16.17;12.63;;;18.60;99.90;;;;;;5038483;28;20475;-45
2021/06/23 10:35:01;;;;;;;15.20;13.77;;;18.60;99.90;;;;;;5051024;28;20423;-44
2021/06/23 10:37:28;;;;;;;15.47;13.63;;;18.70;99.90;;;;;;5041664;28;20534;-43
2021/06/23 10:39:55;;;;;;;18.73;13.20;;;18.80;99.90;;;;;;5066084;28;20555;-46
2021/06/23 10:42:24;;;;;;;19.07;14.37;;;19.00;99.90;;;;;;5059842;28;20447;-41
2021/06/23 10:44:54;;;;;;;15.17;13.60;;;19.10;99.90;;;;;;5065822;28;20420;-43
2021/06/23 10:47:41;;;;;;;17.57;12.40;;;19.20;99.90;;;;;;5059976;28;20528;-47
2021/06/23 10:50:31;;;;;;;14.20;12.33;;;19.20;99.90;;;;;;5042360;28;20468;-45
2021/06/23 10:52:57;;;;;;;16.33;14.30;;;19.30;99.90;;;;;;5054265;28;20423;-41
2021/06/23 10:55:22;;;;;;;18.23;14.17;;;19.30;99.90;;;;;;5066520;28;20411;-44
2021/06/23 10:57:49;;;;;;;14.07;12.67;;;19.30;99.90;;;;;;5065590;28;20183;-47
2021/06/23 11:00:18;;;;;;;18.40;14.03;;;19.30;99.90;;;;;;5054671;28;20185;-41
2021/06/23 11:02:49;;;;;;;16.50;14.07;;;19.20;99.90;;;;;;5040134;28;20983;-42
2021/06/23 11:05:17;;;;;;;17.60;15.87;;;19.30;99.90;;;;;;5046616;28;21047;-43
2021/06/23 11:07:47;;;;;;;17.20;15.23;;;19.30;99.90;;;;;;5040336;28;20446;-46
2021/06/23 11:10:16;;;;;;;19.70;17.80;;;19.30;99.90;;;;;;5046171;28;20499;-46
2021/06/23 11:12:49;;;;;;;19.20;16.10;;;19.30;99.90;;;;;;5048100;28;20429;-44
2021/06/23 11:15:28;;;;;;;17.90;15.63;;;19.30;99.90;;;;;;5046362;28;20424;-44
2021/06/23 11:17:55;;;;;;;17.70;16.00;;;19.20;99.90;;;;;;5043600;28;20507;-43
2021/06/23 11:20:21;;;;;;;18.07;15.00;;;19.30;99.90;;;;;;5052748;28;20851;-46
2021/06/23 11:22:47;;;;;;;17.87;15.97;;;19.30;99.90;;;;;;5056056;28;20458;-45
2021/06/23 11:25:28;;;;;;;17.77;14.90;;;19.40;99.90;;;;;;5066310;28;20548;-42
2021/06/23 11:28:09;;;;;;;15.13;13.50;;;19.40;99.90;;;;;;5059460;28;20433;-44
2021/06/23 11:31:03;;;;;;;14.83;13.40;;;19.40;99.90;;;;;;5064418;28;20770;-44
2021/06/23 11:33:28;;;;;;;15.90;14.20;;;19.40;99.90;;;;;;5051997;28;20845;-42
2021/06/23 11:36:08;;;;;;;16.90;14.90;;;19.40;99.90;;;;;;5045426;28;20408;-44
2021/06/23 11:38:35;;;;;;;17.77;15.87;;;19.50;99.90;;;;;;5051727;28;20184;-42
2021/06/23 11:41:03;;;;;;;15.43;13.83;;;19.50;99.90;;;;;;5064123;28;20415;-47
2021/06/23 11:43:29;;;;;;;16.73;14.83;;;19.60;99.90;;;;;;5065784;28;20416;-47
2021/06/23 11:45:55;;;;;;;17.07;15.33;;;19.60;99.90;;;;;;5066139;28;20423;-45
2021/06/23 11:48:21;;;;;;;17.00;15.30;;;19.70;99.90;;;;;;5052205;28;20800;-44
2021/06/23 11:50:47;;;;;;;16.90;15.07;;;19.80;99.90;;;;;;5040527;28;20408;-42
2021/06/23 11:53:15;;;;;;;18.30;14.40;;;19.90;99.90;;;;;;5055023;28;21040;-47
2021/06/23 11:55:42;;;;;;;17.37;15.47;;;20.00;99.90;;;;;;5067020;28;20418;-44
2021/06/23 11:58:08;;;;;;;16.13;14.63;;;20.00;99.90;;;;;;5058580;28;20423;-42
2021/06/23 12:00:35;;;;;;;16.77;15.17;;;20.10;99.90;;;;;;5068996;28;20468;-42
2021/06/23 12:03:02;;;;;;;15.70;14.23;;;20.10;99.90;;;;;;5060114;28;20527;-45
2021/06/23 12:05:29;;;;;;;15.57;13.97;;;20.20;99.90;;;;;;5052602;28;20424;-48
2021/06/23 12:07:56;;;;;;;13.80;12.60;;;20.10;99.90;;;;;;5063728;28;20439;-44
2021/06/23 12:10:24;;;;;;;16.23;14.57;;;20.10;99.90;;;;;;5067158;28;20549;-42
2021/06/23 12:12:51;;;;;;;17.33;15.63;;;20.20;99.90;;;;;;5062834;28;20426;-44
2021/06/23 12:15:19;;;;;;;16.27;14.60;;;20.30;99.90;;;;;;5055650;28;20424;-43
2021/06/23 12:17:46;;;;;;;17.33;15.53;;;20.30;99.90;;;;;;5065544;28;20431;-44
2021/06/23 12:20:12;;;;;;;16.73;15.03;;;20.30;99.90;;;;;;5044681;28;20442;-42
2021/06/23 12:22:39;;;;;;;16.70;15.00;;;20.30;99.90;;;;;;5051776;28;20428;-45
2021/06/23 12:25:07;;;;;;;17.43;15.83;;;20.30;99.90;;;;;;5063429;28;20973;-44
2021/06/23 12:27:33;;;;;;;16.67;15.07;;;20.40;99.90;;;;;;5067012;28;20438;-45
2021/06/23 12:29:59;;;;;;;16.23;14.83;;;20.40;99.90;;;;;;5066982;28;20879;-46
2021/06/23 12:32:25;;;;;;;17.10;15.00;;;20.50;99.90;;;;;;5067885;28;20185;-44
2021/06/23 12:34:51;;;;;;;19.27;17.40;;;20.70;99.90;;;;;;5039843;28;20200;-43
2021/06/23 12:37:18;;;;;;;18.17;16.37;;;20.70;99.90;;;;;;5048201;28;20190;-45
2021/06/23 12:39:44;;;;;;;19.27;17.43;;;20.70;99.90;;;;;;5065058;28;20451;-43
2021/06/23 12:42:09;;;;;;;18.30;15.67;;;20.80;99.90;;;;;;5061540;28;20764;-43
2021/06/23 12:44:36;;;;;;;18.57;15.63;;;20.80;99.90;;;;;;5064761;28;20435;-43
2021/06/23 12:47:05;;;;;;;17.13;15.30;;;20.70;99.90;;;;;;5068566;28;20571;-45
2021/06/23 12:49:32;;;;;;;18.10;16.20;;;20.60;99.90;;;;;;5043784;28;20491;-42
2021/06/23 12:51:58;;;;;;;19.60;14.77;;;20.60;99.90;;;;;;5052398;28;20424;-45